createdAt,value
2023-04-04T00:02:10.761Z,-1.95
2023-04-04T00:04:55.956Z,-1.90
2023-04-04T00:07:41.182Z,-1.99
2023-04-04T00:10:26.303Z,-1.95
2023-04-04T00:13:11.547Z,-1.84
2023-04-04T00:15:56.908Z,-1.76
2023-04-04T00:18:42.009Z,-1.94
2023-04-04T00:21:27.318Z,-1.86
2023-04-04T00:24:12.681Z,-1.97
2023-04-04T00:26:57.789Z,-1.98
2023-04-04T00:29:43.014Z,-1.98
2023-04-04T00:32:28.173Z,-1.89
2023-04-04T00:35:13.648Z,-2.41
2023-04-04T00:37:59.043Z,-1.82
2023-04-04T00:40:46.892Z,-1.91
2023-04-04T00:43:32.961Z,-1.95
2023-04-04T00:46:19.183Z,-1.99
2023-04-04T00:49:05.232Z,-2.08
2023-04-04T00:51:50.523Z,-2.06
2023-04-04T00:54:37.160Z,-2.17
2023-04-04T00:57:23.011Z,-2.42
2023-04-04T01:00:08.955Z,-1.90
2023-04-04T01:02:54.289Z,-1.81
2023-04-04T01:05:40.112Z,-2.52
2023-04-04T01:08:26.490Z,-1.65
2023-04-04T01:11:12.734Z,-1.67
2023-04-04T01:13:58.225Z,-1.80
2023-04-04T01:16:43.569Z,-1.67
2023-04-04T01:19:36.516Z,-1.68
2023-04-04T01:22:28.939Z,-1.71
2023-04-04T01:25:15.939Z,-1.64
2023-04-04T01:28:05.310Z,-1.70
2023-04-04T01:30:50.532Z,-1.64
2023-04-04T01:33:45.306Z,-2.48
2023-04-04T01:36:45.637Z,-2.21
2023-04-04T01:39:43.887Z,-1.71
2023-04-04T01:42:31.905Z,-1.53
2023-04-04T01:45:17.926Z,-1.54
2023-04-04T01:48:04.418Z,-1.74
2023-04-04T01:50:49.874Z,-1.74
2023-04-04T01:53:34.940Z,-1.83
2023-04-04T01:56:20.220Z,-1.85
2023-04-04T01:59:05.416Z,-1.66
2023-04-04T02:01:51.160Z,-1.57
2023-04-04T02:04:36.207Z,-1.58
2023-04-04T02:07:21.462Z,-1.55
2023-04-04T02:10:07.512Z,-1.43
2023-04-04T02:12:53.447Z,-1.44
2023-04-04T02:15:41.229Z,-1.44
2023-04-04T02:18:26.364Z,-1.48
2023-04-04T02:21:11.844Z,-1.33
2023-04-04T02:23:56.964Z,-1.21
2023-04-04T02:26:42.426Z,-1.12
2023-04-04T02:29:28.036Z,-1.03
2023-04-04T02:32:13.333Z,-0.97
2023-04-04T02:34:59.487Z,-0.93
2023-04-04T02:37:45.913Z,-0.87
2023-04-04T02:40:37.209Z,-0.86
2023-04-04T02:43:23.854Z,-0.86
2023-04-04T02:46:20.989Z,-0.84
2023-04-04T02:49:10.394Z,-1.01
2023-04-04T02:51:58.102Z,-0.89
2023-04-04T02:54:47.921Z,-0.91
2023-04-04T02:57:43.658Z,-0.88
2023-04-04T03:00:29.261Z,-0.97
2023-04-04T03:03:14.489Z,-1.25
2023-04-04T03:06:02.829Z,-1.35
2023-04-04T03:08:48.266Z,-1.32
2023-04-04T03:11:34.648Z,-1.27
2023-04-04T03:14:20.408Z,-1.17
2023-04-04T03:17:06.533Z,-1.75
2023-04-04T03:19:51.938Z,-1.16
2023-04-04T03:22:37.590Z,-1.22
2023-04-04T03:25:23.123Z,-1.29
2023-04-04T03:28:11.530Z,-1.10
2023-04-04T03:31:03.615Z,-1.47
2023-04-04T03:33:49.186Z,-1.53
2023-04-04T03:36:34.788Z,-1.36
2023-04-04T03:39:19.954Z,-1.32
2023-04-04T03:42:05.782Z,-1.35
2023-04-04T03:44:51.647Z,-1.60
2023-04-04T03:47:45.804Z,-1.43
2023-04-04T03:50:31.251Z,-1.42
2023-04-04T03:53:16.862Z,-1.60
2023-04-04T03:56:02.745Z,-1.89
2023-04-04T03:58:47.987Z,-1.80
2023-04-04T04:01:37.132Z,-1.97
2023-04-04T04:04:22.385Z,-1.96
2023-04-04T04:07:07.920Z,-2.37
2023-04-04T04:09:53.360Z,-2.15
2023-04-04T04:12:38.466Z,-1.99
2023-04-04T04:15:23.556Z,-1.88
2023-04-04T04:18:08.931Z,-1.69
2023-04-04T04:20:58.003Z,-1.95
2023-04-04T04:23:43.288Z,-2.34
2023-04-04T04:26:28.536Z,-2.39
2023-04-04T04:29:14.094Z,-2.99
2023-04-04T04:31:59.676Z,-2.29
2023-04-04T04:34:48.729Z,-2.30
2023-04-04T04:37:36.031Z,-2.27
2023-04-04T04:40:22.680Z,-2.19
2023-04-04T04:43:31.276Z,-2.38
2023-04-04T04:46:16.806Z,-2.32
2023-04-04T04:49:02.137Z,-2.22
2023-04-04T04:51:49.309Z,-2.09
2023-04-04T04:54:36.030Z,-1.98
2023-04-04T04:57:21.668Z,-1.90
2023-04-04T05:00:07.695Z,-1.84
2023-04-04T05:02:55.365Z,-1.79
2023-04-04T05:05:49.330Z,-1.77
2023-04-04T05:08:35.497Z,-1.83
2023-04-04T05:11:27.535Z,-1.79
2023-04-04T05:14:12.842Z,-1.78
2023-04-04T05:17:05.889Z,-1.74
2023-04-04T05:19:52.448Z,-1.72
2023-04-04T05:22:46.645Z,-1.73
2023-04-04T05:25:36.930Z,-1.73
2023-04-04T05:28:22.738Z,-1.77
2023-04-04T05:31:09.348Z,-1.64
2023-04-04T05:33:55.691Z,-1.64
2023-04-04T05:36:48.467Z,-1.52
2023-04-04T05:39:33.669Z,-1.47
2023-04-04T05:42:23.454Z,-1.45
2023-04-04T05:45:11.898Z,-1.86
2023-04-04T05:47:57.601Z,-1.66
2023-04-04T05:50:47.343Z,-1.60
2023-04-04T05:53:33.809Z,-1.57
2023-04-04T05:56:21.142Z,-1.61
2023-04-04T05:59:07.107Z,-1.68
2023-04-04T06:01:58.878Z,-2.16
2023-04-04T06:04:43.880Z,-2.09
2023-04-04T06:07:30.194Z,-2.18
2023-04-04T06:10:15.453Z,-2.54
2023-04-04T06:13:00.840Z,-2.86
2023-04-04T06:15:47.148Z,-2.46
2023-04-04T06:18:32.554Z,-2.65
2023-04-04T06:21:18.098Z,-2.60
2023-04-04T06:24:03.450Z,-2.57
2023-04-04T06:26:48.838Z,-2.50
2023-04-04T06:29:34.696Z,-2.47
2023-04-04T06:32:20.653Z,-2.56
2023-04-04T06:35:07.566Z,-2.57
2023-04-04T06:38:03.480Z,-2.45
2023-04-04T06:40:48.755Z,-2.39
2023-04-04T06:43:33.847Z,-2.44
2023-04-04T06:46:19.349Z,-2.39
2023-04-04T06:49:05.489Z,-2.25
2023-04-04T06:51:51.920Z,-2.26
2023-04-04T06:54:37.403Z,-2.19
2023-04-04T06:57:22.894Z,-2.16
2023-04-04T07:00:09.647Z,-2.18
2023-04-04T07:02:59.017Z,-2.00
2023-04-04T07:05:44.212Z,-2.21
2023-04-04T07:08:34.411Z,-2.08
2023-04-04T07:11:21.617Z,-2.07
2023-04-04T07:14:06.922Z,-2.23
2023-04-04T07:16:52.845Z,-1.83
2023-04-04T07:19:38.298Z,-1.79
2023-04-04T07:22:23.712Z,-1.65
2023-04-04T07:25:09.366Z,-1.52
2023-04-04T07:28:02.332Z,-1.34
2023-04-04T07:30:58.809Z,-1.47
2023-04-04T07:33:44.278Z,-1.31
2023-04-04T07:36:29.865Z,-1.30
2023-04-04T07:39:15.227Z,-0.95
2023-04-04T07:42:00.599Z,-0.90
2023-04-04T07:44:45.704Z,-0.73
2023-04-04T07:47:30.947Z,-0.80
2023-04-04T07:50:16.686Z,-0.70
2023-04-04T07:53:02.066Z,-0.75
2023-04-04T07:55:47.400Z,-0.65
2023-04-04T07:58:36.050Z,-0.61
2023-04-04T08:01:21.323Z,-0.57
2023-04-04T08:04:07.166Z,-0.33
2023-04-04T08:06:52.349Z,-0.23
2023-04-04T08:09:37.577Z,-0.36
2023-04-04T08:12:22.900Z,-0.40
2023-04-04T08:15:08.475Z,-0.49
2023-04-04T08:17:53.864Z,-0.53
2023-04-04T08:20:39.254Z,-0.29
2023-04-04T08:23:24.546Z,-0.20
2023-04-04T08:26:10.105Z,0.09
2023-04-04T08:28:55.329Z,0.23
2023-04-04T08:31:40.673Z,0.31
2023-04-04T08:34:25.951Z,0.36
2023-04-04T08:37:11.384Z,0.03
2023-04-04T08:39:56.906Z,-0.07
2023-04-04T08:42:43.174Z,-0.15
2023-04-04T08:45:30.198Z,-0.20
2023-04-04T08:48:17.686Z,-0.03
2023-04-04T08:51:04.570Z,-0.14
2023-04-04T08:53:50.465Z,0.16
2023-04-04T08:56:35.907Z,0.19
2023-04-04T08:59:21.501Z,-0.12
2023-04-04T09:02:09.584Z,-0.30
2023-04-04T09:05:05.635Z,-0.40
2023-04-04T09:07:51.851Z,-0.96
2023-04-04T09:10:38.014Z,-0.28
2023-04-04T09:13:23.569Z,-0.38
2023-04-04T09:16:08.908Z,-0.44
2023-04-04T09:18:54.219Z,-0.13
2023-04-04T09:21:39.631Z,0.07
2023-04-04T09:24:24.721Z,-0.09
2023-04-04T09:27:11.931Z,-0.36
2023-04-04T09:30:05.218Z,-0.58
2023-04-04T09:32:51.142Z,0.33
2023-04-04T09:35:37.770Z,0.09
2023-04-04T09:38:24.548Z,0.13
2023-04-04T09:41:10.243Z,-0.08
2023-04-04T09:43:57.833Z,-0.24
2023-04-04T09:46:43.257Z,-0.19
2023-04-04T09:49:32.366Z,-0.14
2023-04-04T09:52:19.432Z,-0.07
2023-04-04T09:55:05.637Z,0.03
2023-04-04T09:57:51.051Z,0.11
2023-04-04T10:00:40.994Z,0.35
2023-04-04T10:03:27.948Z,0.22
2023-04-04T10:06:13.282Z,-0.05
2023-04-04T10:08:59.033Z,0.13
2023-04-04T10:11:44.725Z,0.22
2023-04-04T10:14:36.773Z,-0.01
2023-04-04T10:17:23.447Z,0.05
2023-04-04T10:20:09.759Z,0.20
2023-04-04T10:22:55.711Z,0.16
2023-04-04T10:25:41.247Z,-0.75
2023-04-04T10:28:28.160Z,-0.37
2023-04-04T10:31:23.387Z,-0.38
2023-04-04T10:34:19.304Z,-0.25
2023-04-04T10:37:20.144Z,-0.34
2023-04-04T10:40:10.392Z,-0.35
2023-04-04T10:42:56.638Z,0.00
2023-04-04T10:45:43.113Z,-0.08
2023-04-04T10:48:29.117Z,0.20
2023-04-04T10:51:15.741Z,-0.30
2023-04-04T10:54:01.043Z,-0.00
2023-04-04T10:56:46.763Z,0.02
2023-04-04T10:59:32.054Z,0.23
2023-04-04T11:02:17.166Z,0.36
2023-04-04T11:05:17.492Z,0.53
2023-04-04T11:08:08.571Z,0.53
2023-04-04T11:10:55.661Z,0.62
2023-04-04T11:13:59.732Z,0.76
2023-04-04T11:16:46.611Z,0.77
2023-04-04T11:19:31.920Z,0.84
2023-04-04T11:22:17.488Z,1.17
2023-04-04T11:25:24.324Z,1.40
2023-04-04T11:28:15.386Z,1.53
2023-04-04T11:31:18.914Z,1.48
2023-04-04T11:34:08.436Z,1.32
2023-04-04T11:36:53.935Z,1.35
2023-04-04T11:39:47.726Z,1.12
2023-04-04T11:42:37.766Z,1.04
2023-04-04T11:45:25.763Z,1.32
2023-04-04T11:48:12.562Z,1.38
2023-04-04T11:50:57.985Z,1.21
2023-04-04T11:53:43.438Z,1.16
2023-04-04T11:56:28.741Z,0.97
2023-04-04T11:59:19.467Z,0.89
2023-04-04T12:02:05.110Z,0.98
2023-04-04T12:04:51.783Z,1.37
2023-04-04T12:07:37.265Z,1.77
2023-04-04T12:10:22.785Z,2.00
2023-04-04T12:13:09.563Z,2.00
2023-04-04T12:18:41.170Z,2.43
2023-04-04T12:21:26.322Z,2.89
2023-04-04T12:24:12.065Z,3.10
2023-04-04T12:26:57.361Z,2.46
2023-04-04T12:29:43.140Z,3.12
2023-04-04T12:32:29.379Z,2.32
2023-04-04T12:35:15.289Z,2.48
2023-04-04T12:38:05.954Z,2.30
2023-04-04T12:40:51.617Z,2.35
2023-04-04T12:43:41.532Z,2.42
2023-04-04T12:46:26.817Z,2.62
2023-04-04T12:49:12.085Z,2.30
2023-04-04T12:51:57.825Z,1.70
2023-04-04T12:54:43.547Z,2.38
2023-04-04T12:57:29.139Z,2.51
2023-04-04T13:00:15.357Z,2.82
2023-04-04T13:03:00.916Z,2.84
2023-04-04T13:05:47.489Z,2.73
2023-04-04T13:08:33.220Z,3.06
2023-04-04T13:11:19.131Z,3.22
2023-04-04T13:14:04.660Z,3.09
2023-04-04T13:17:04.506Z,2.84
2023-04-04T13:19:50.071Z,3.32
2023-04-04T13:22:36.333Z,2.95
2023-04-04T13:25:21.593Z,3.01
2023-04-04T13:28:06.880Z,2.97
2023-04-04T13:30:52.217Z,3.14
2023-04-04T13:33:38.438Z,3.36
2023-04-04T13:36:23.720Z,3.41
2023-04-04T13:39:09.106Z,3.43
2023-04-04T13:41:54.440Z,2.99
2023-04-04T13:44:39.744Z,2.41
2023-04-04T13:47:25.667Z,2.67
2023-04-04T13:50:11.368Z,2.79
2023-04-04T13:52:56.370Z,3.00
2023-04-04T13:55:56.888Z,3.02
2023-04-04T13:58:47.749Z,3.11
2023-04-04T14:01:33.653Z,2.82
2023-04-04T14:07:24.016Z,3.35
2023-04-04T14:10:09.824Z,3.54
2023-04-04T14:12:55.047Z,3.72
2023-04-04T14:15:40.856Z,3.29
2023-04-04T14:18:26.288Z,3.65
2023-04-04T14:21:11.737Z,3.72
2023-04-04T14:23:56.912Z,3.79
2023-04-04T14:26:42.342Z,3.77
2023-04-04T14:29:27.702Z,3.65
2023-04-04T14:32:12.917Z,3.73
2023-04-04T14:34:58.426Z,3.56
2023-04-04T14:37:43.835Z,3.39
2023-04-04T14:40:29.422Z,3.52
2023-04-04T14:43:14.724Z,3.35
2023-04-04T14:45:59.972Z,2.97
2023-04-04T14:48:45.517Z,3.42
2023-04-04T14:51:30.938Z,3.67
2023-04-04T14:54:16.225Z,3.47
2023-04-04T14:57:02.201Z,3.63
2023-04-04T14:59:47.480Z,3.56
2023-04-04T15:02:33.298Z,3.29
2023-04-04T15:05:19.429Z,3.39
2023-04-04T15:08:04.772Z,3.25
2023-04-04T15:10:50.058Z,2.97
2023-04-04T15:13:35.525Z,2.94
2023-04-04T15:16:20.999Z,3.30
2023-04-04T15:19:06.429Z,3.37
2023-04-04T15:21:51.629Z,3.46
2023-04-04T15:24:37.111Z,3.53
2023-04-04T15:27:22.374Z,3.11
2023-04-04T15:30:08.593Z,3.16
2023-04-04T15:32:55.721Z,2.91
2023-04-04T15:35:42.450Z,3.05
2023-04-04T15:38:27.774Z,3.14
2023-04-04T15:41:13.354Z,3.12
2023-04-04T15:43:58.540Z,2.88
2023-04-04T15:46:43.766Z,2.91
2023-04-04T15:49:28.857Z,3.02
2023-04-04T15:52:14.308Z,2.82
2023-04-04T15:54:59.557Z,2.86
2023-04-04T15:57:45.635Z,2.75
2023-04-04T16:00:31.065Z,2.87
2023-04-04T16:03:16.669Z,1.57
2023-04-04T16:06:01.760Z,3.01
2023-04-04T16:08:47.001Z,2.74
2023-04-04T16:11:32.554Z,2.72
2023-04-04T16:14:17.773Z,2.95
2023-04-04T16:17:03.288Z,2.88
2023-04-04T16:19:48.444Z,2.96
2023-04-04T16:22:33.672Z,2.45
2023-04-04T16:25:20.659Z,2.31
2023-04-04T16:28:06.684Z,2.36
2023-04-04T16:30:52.569Z,2.77
2023-04-04T16:33:37.742Z,2.73
2023-04-04T16:36:23.194Z,2.51
2023-04-04T16:39:08.650Z,2.78
2023-04-04T16:41:54.092Z,2.36
2023-04-04T16:44:39.595Z,2.20
2023-04-04T16:47:26.716Z,2.18
2023-04-04T16:50:12.606Z,2.24
2023-04-04T16:52:58.062Z,2.45
2023-04-04T16:55:43.538Z,2.33
2023-04-04T16:58:29.763Z,2.08
2023-04-04T17:01:15.113Z,1.77
2023-04-04T17:04:00.588Z,2.22
2023-04-04T17:06:45.758Z,1.86
2023-04-04T17:09:30.976Z,2.07
2023-04-04T17:12:16.468Z,2.20
2023-04-04T17:15:02.073Z,1.94
2023-04-04T17:17:47.227Z,1.84
2023-04-04T17:20:34.309Z,1.85
2023-04-04T17:23:19.856Z,1.64
2023-04-04T17:26:05.164Z,1.61
2023-04-04T17:28:50.171Z,1.29
2023-04-04T17:31:35.804Z,1.51
2023-04-04T17:34:21.234Z,1.64
2023-04-04T17:37:06.842Z,2.06
2023-04-04T17:39:52.032Z,2.31
2023-04-04T17:42:37.135Z,2.49
2023-04-04T17:45:22.809Z,2.59
2023-04-04T17:48:08.446Z,2.32
2023-04-04T17:50:53.704Z,2.83
2023-04-04T17:53:39.026Z,2.90
2023-04-04T17:56:25.133Z,2.84
2023-04-04T17:59:10.824Z,2.74
2023-04-04T18:01:56.159Z,2.65
2023-04-04T18:04:42.212Z,2.62
2023-04-04T18:07:27.653Z,2.36
2023-04-04T18:10:12.912Z,2.29
2023-04-04T18:12:58.411Z,2.29
2023-04-04T18:15:43.675Z,2.09
2023-04-04T18:18:29.405Z,2.11
2023-04-04T18:21:15.129Z,2.12
2023-04-04T18:24:00.620Z,2.04
2023-04-04T18:26:46.021Z,2.05
2023-04-04T18:29:31.146Z,1.75
2023-04-04T18:32:17.856Z,1.90
2023-04-04T18:35:03.389Z,1.81
2023-04-04T18:37:49.615Z,1.68
2023-04-04T18:40:34.802Z,1.60
2023-04-04T18:43:20.206Z,1.56
2023-04-04T18:46:05.903Z,1.48
2023-04-04T18:48:51.704Z,1.55
2023-04-04T18:51:36.733Z,1.51
2023-04-04T18:54:21.991Z,1.43
2023-04-04T18:57:07.461Z,1.41
2023-04-04T18:59:52.942Z,1.34
2023-04-04T19:02:38.503Z,1.28
2023-04-04T19:05:25.342Z,0.55
2023-04-04T19:08:12.613Z,0.63
2023-04-04T19:10:57.843Z,0.99
2023-04-04T19:13:43.373Z,0.82
2023-04-04T19:16:29.861Z,0.71
2023-04-04T19:19:15.248Z,0.70
2023-04-04T19:22:03.230Z,0.66
2023-04-04T19:24:48.398Z,0.62
2023-04-04T19:27:33.578Z,0.57
2023-04-04T19:30:43.816Z,0.55
2023-04-04T19:33:32.893Z,0.44
2023-04-04T19:36:19.556Z,0.39
2023-04-04T19:39:05.558Z,0.34
2023-04-04T19:41:50.567Z,0.28
2023-04-04T19:44:39.677Z,0.27
2023-04-04T19:47:25.053Z,0.18
2023-04-04T19:50:36.527Z,0.06
2023-04-04T19:53:22.663Z,0.14
2023-04-04T19:56:09.974Z,-0.00
2023-04-04T19:59:00.671Z,0.11
2023-04-04T20:01:59.754Z,0.09
2023-04-04T20:04:46.902Z,0.07
2023-04-04T20:07:32.309Z,0.03
2023-04-04T20:10:38.885Z,-0.08
2023-04-04T20:13:24.257Z,-0.09
2023-04-04T20:16:11.739Z,-0.13
2023-04-04T20:19:01.826Z,-0.20
2023-04-04T20:21:48.122Z,-0.22
2023-04-04T20:24:34.043Z,-0.22
2023-04-04T20:27:23.855Z,-0.35
2023-04-04T20:30:11.363Z,-0.23
2023-04-04T20:32:56.576Z,-0.25
2023-04-04T20:35:41.877Z,-0.27
2023-04-04T20:38:27.230Z,-0.23
2023-04-04T20:41:16.695Z,-0.24
2023-04-04T20:44:02.076Z,-0.30
2023-04-04T20:46:48.214Z,-0.34
2023-04-04T20:49:33.529Z,-0.35
2023-04-04T20:52:25.718Z,-0.44
2023-04-04T20:55:11.097Z,-0.82
2023-04-04T20:58:22.575Z,-0.53
2023-04-04T21:01:12.948Z,-0.54
2023-04-04T21:03:59.377Z,-0.60
2023-04-04T21:06:44.926Z,-0.61
2023-04-04T21:09:30.517Z,-0.63
2023-04-04T21:12:15.882Z,-0.75
2023-04-04T21:15:01.216Z,-1.15
2023-04-04T21:17:46.427Z,-1.92
2023-04-04T21:20:46.828Z,-1.63
2023-04-04T21:23:33.451Z,-1.65
2023-04-04T21:26:35.476Z,-1.39
2023-04-04T21:29:22.932Z,-1.17
2023-04-04T21:32:09.223Z,-1.09
2023-04-04T21:34:54.338Z,-1.23
2023-04-04T21:37:39.887Z,-1.12
2023-04-04T21:40:25.649Z,-1.08
2023-04-04T21:43:11.175Z,-1.02
2023-04-04T21:45:56.510Z,-1.06
2023-04-04T21:48:41.606Z,-1.06
2023-04-04T21:51:27.503Z,-1.04
2023-04-04T21:54:13.054Z,-1.48
2023-04-04T21:56:58.531Z,-1.16
2023-04-04T21:59:43.738Z,-1.01
2023-04-04T22:02:29.082Z,-1.03
2023-04-04T22:05:14.816Z,-1.06
2023-04-04T22:07:59.966Z,-1.04
2023-04-04T22:10:45.279Z,-1.63
2023-04-04T22:13:30.940Z,-1.49
2023-04-04T22:16:18.543Z,-1.10
2023-04-04T22:19:03.813Z,-1.07
2023-04-04T22:21:48.965Z,-1.09
2023-04-04T22:24:34.295Z,-1.13
2023-04-04T22:27:19.607Z,-1.23
2023-04-04T22:30:06.279Z,-1.41
2023-04-04T22:32:51.805Z,-1.27
2023-04-04T22:35:37.008Z,-1.32
2023-04-04T22:38:21.999Z,-1.44
2023-04-04T22:41:07.590Z,-1.37
2023-04-04T22:43:53.383Z,-1.45
2023-04-04T22:46:38.767Z,-1.48
2023-04-04T22:49:24.220Z,-1.58
2023-04-04T22:52:09.570Z,-1.52
2023-04-04T22:54:54.796Z,-1.53
2023-04-04T22:57:40.046Z,-1.56
2023-04-04T23:00:25.594Z,-1.55
2023-04-04T23:03:10.723Z,-1.54
2023-04-04T23:05:56.002Z,-1.57
2023-04-04T23:08:41.127Z,-1.76
2023-04-04T23:11:26.771Z,-1.84
2023-04-04T23:14:12.484Z,-1.92
2023-04-04T23:16:57.945Z,-1.80
2023-04-04T23:19:43.164Z,-1.70
2023-04-04T23:22:29.244Z,-1.70
2023-04-04T23:25:14.338Z,-1.75
2023-04-04T23:28:00.160Z,-1.78
2023-04-04T23:30:45.413Z,-1.79
2023-04-04T23:33:30.776Z,-1.79
2023-04-04T23:36:16.050Z,-1.76
2023-04-04T23:39:01.354Z,-1.73
2023-04-04T23:41:46.890Z,-2.09
2023-04-04T23:44:32.156Z,-1.80
2023-04-04T23:47:17.533Z,-1.86
2023-04-04T23:50:03.159Z,-1.90
2023-04-04T23:52:48.509Z,-1.95
2023-04-04T23:55:33.815Z,-1.99
2023-04-04T23:58:19.539Z,-2.05
